sensor_id;sensor_type;location;lat;lon;timestamp;pressure;altitude;pressure_sealevel;temperature;humidity
43824;BME280;29470;53.550;9.926;2023-04-15T00:02:13;100561.72;;;13.27;64.10
43824;BME280;29470;53.550;9.926;2023-04-15T00:07:16;100567.16;;;13.32;64.44
43824;BME280;29470;53.550;9.926;2023-04-15T00:12:20;100559.53;;;13.50;63.19
43824;BME280;29470;53.550;9.926;2023-04-15T00:17:23;100545.34;;;12.96;66.86
43824;BME280;29470;53.550;9.926;2023-04-15T00:22:26;100548.75;;;12.95;67.42
43824;BME280;29470;53.550;9.926;2023-04-15T00:27:30;100547.84;;;13.42;66.08
43824;BME280;29470;53.550;9.926;2023-04-15T00:32:33;100542.72;;;13.60;64.59
43824;BME280;29470;53.550;9.926;2023-04-15T00:37:36;100539.75;;;13.37;66.35
43824;BME280;29470;53.550;9.926;2023-04-15T00:42:40;100537.97;;;13.67;64.93
43824;BME280;29470;53.550;9.926;2023-04-15T00:47:43;100547.22;;;13.62;64.82
43824;BME280;29470;53.550;9.926;2023-04-15T00:52:47;100541.41;;;13.20;65.97
43824;BME280;29470;53.550;9.926;2023-04-15T00:57:51;100538.88;;;13.36;66.23
43824;BME280;29470;53.550;9.926;2023-04-15T01:02:54;100533.41;;;13.00;67.75
43824;BME280;29470;53.550;9.926;2023-04-15T01:07:57;100534.28;;;13.64;66.24
43824;BME280;29470;53.550;9.926;2023-04-15T01:13:01;100544.66;;;12.84;69.56
43824;BME280;29470;53.550;9.926;2023-04-15T01:18:04;100535.53;;;13.07;68.91
43824;BME280;29470;53.550;9.926;2023-04-15T01:23:08;100535.53;;;13.07;68.88
43824;BME280;29470;53.550;9.926;2023-04-15T01:28:12;100524.78;;;13.33;69.14
43824;BME280;29470;53.550;9.926;2023-04-15T01:33:15;100523.34;;;13.21;69.63
43824;BME280;29470;53.550;9.926;2023-04-15T01:38:20;100514.59;;;13.04;70.52
43824;BME280;29470;53.550;9.926;2023-04-15T01:43:24;100509.91;;;13.14;69.93
43824;BME280;29470;53.550;9.926;2023-04-15T01:48:27;100504.09;;;13.18;71.43
43824;BME280;29470;53.550;9.926;2023-04-15T01:53:30;100506.63;;;13.16;72.29
43824;BME280;29470;53.550;9.926;2023-04-15T01:58:35;100498.81;;;13.33;70.88
43824;BME280;29470;53.550;9.926;2023-04-15T02:03:38;100481.88;;;13.39;69.97
43824;BME280;29470;53.550;9.926;2023-04-15T02:08:42;100486.97;;;13.53;69.25
43824;BME280;29470;53.550;9.926;2023-04-15T02:13:46;100495.47;;;13.50;69.22
43824;BME280;29470;53.550;9.926;2023-04-15T02:18:48;100493.56;;;13.31;68.74
43824;BME280;29470;53.550;9.926;2023-04-15T02:23:52;100493.56;;;12.83;70.77
43824;BME280;29470;53.550;9.926;2023-04-15T02:28:56;100502.47;;;13.20;70.97
43824;BME280;29470;53.550;9.926;2023-04-15T02:33:59;100498.59;;;13.28;71.50
43824;BME280;29470;53.550;9.926;2023-04-15T02:39:05;100501.31;;;13.63;69.54
43824;BME280;29470;53.550;9.926;2023-04-15T02:44:09;100498.78;;;13.00;71.77
43824;BME280;29470;53.550;9.926;2023-04-15T02:49:13;100494.34;;;13.62;68.57
43824;BME280;29470;53.550;9.926;2023-04-15T02:54:16;100501.09;;;13.26;69.57
43824;BME280;29470;53.550;9.926;2023-04-15T02:59:20;100490.94;;;13.15;70.14
43824;BME280;29470;53.550;9.926;2023-04-15T03:04:23;100488.25;;;13.61;70.92
43824;BME280;29470;53.550;9.926;2023-04-15T03:09:26;100491.75;;;13.14;72.07
43824;BME280;29470;53.550;9.926;2023-04-15T03:14:31;100480.56;;;13.15;72.06
43824;BME280;29470;53.550;9.926;2023-04-15T03:19:34;100490.91;;;12.98;71.49
43824;BME280;29470;53.550;9.926;2023-04-15T03:24:37;100488.06;;;13.91;69.40
43824;BME280;29470;53.550;9.926;2023-04-15T03:29:41;100483.16;;;12.83;72.91
43824;BME280;29470;53.550;9.926;2023-04-15T03:34:45;100485.75;;;13.15;72.44
43824;BME280;29470;53.550;9.926;2023-04-15T03:39:48;100488.31;;;12.98;74.16
43824;BME280;29470;53.550;9.926;2023-04-15T03:44:52;100480.47;;;13.13;72.74
43824;BME280;29470;53.550;9.926;2023-04-15T03:49:55;100483.06;;;13.13;73.80
43824;BME280;29470;53.550;9.926;2023-04-15T03:54:57;100475.72;;;13.37;71.17
43824;BME280;29470;53.550;9.926;2023-04-15T04:00:02;100483.75;;;12.94;73.71
43824;BME280;29470;53.550;9.926;2023-04-15T04:05:12;100479.84;;;13.17;72.34
43824;BME280;29470;53.550;9.926;2023-04-15T04:10:15;100487.19;;;13.74;70.32
43824;BME280;29470;53.550;9.926;2023-04-15T04:15:19;100490.75;;;13.76;71.35
43824;BME280;29470;53.550;9.926;2023-04-15T04:20:22;100488.19;;;12.80;77.48
43824;BME280;29470;53.550;9.926;2023-04-15T04:25:25;100495.41;;;13.34;74.69
43824;BME280;29470;53.550;9.926;2023-04-15T04:30:29;100499.09;;;12.89;74.46
43824;BME280;29470;53.550;9.926;2023-04-15T04:35:32;100503.38;;;13.20;75.48
43824;BME280;29470;53.550;9.926;2023-04-15T04:40:38;100503.84;;;13.61;74.14
43824;BME280;29470;53.550;9.926;2023-04-15T04:45:42;100503.22;;;13.17;76.56
43824;BME280;29470;53.550;9.926;2023-04-15T04:50:45;100502.78;;;13.09;76.30
43824;BME280;29470;53.550;9.926;2023-04-15T04:55:48;100498.16;;;13.68;74.22
43824;BME280;29470;53.550;9.926;2023-04-15T05:00:53;100495.34;;;13.32;75.68
43824;BME280;29470;53.550;9.926;2023-04-15T05:05:55;100495.47;;;13.67;73.06
43824;BME280;29470;53.550;9.926;2023-04-15T05:10:58;100495.88;;;13.26;74.34
43824;BME280;29470;53.550;9.926;2023-04-15T05:16:03;100496.22;;;13.33;75.32
43824;BME280;29470;53.550;9.926;2023-04-15T05:21:06;100503.84;;;13.30;74.34
43824;BME280;29470;53.550;9.926;2023-04-15T05:26:09;100501.50;;;13.18;75.39
43824;BME280;29470;53.550;9.926;2023-04-15T05:31:13;100499.53;;;13.14;76.05
43824;BME280;29470;53.550;9.926;2023-04-15T05:36:16;100496.34;;;14.01;73.61
43824;BME280;29470;53.550;9.926;2023-04-15T05:41:19;100503.81;;;14.11;72.32
43824;BME280;29470;53.550;9.926;2023-04-15T05:46:23;100505.63;;;13.46;74.22
43824;BME280;29470;53.550;9.926;2023-04-15T05:51:26;100499.19;;;13.72;74.80
43824;BME280;29470;53.550;9.926;2023-04-15T05:56:29;100499.84;;;13.84;72.47
43824;BME280;29470;53.550;9.926;2023-04-15T06:01:33;100511.16;;;13.85;73.68
43824;BME280;29470;53.550;9.926;2023-04-15T06:06:36;100518.31;;;13.89;74.08
43824;BME280;29470;53.550;9.926;2023-04-15T06:11:39;100517.06;;;13.66;74.16
43824;BME280;29470;53.550;9.926;2023-04-15T06:16:44;100531.94;;;13.52;75.04
43824;BME280;29470;53.550;9.926;2023-04-15T06:21:47;100522.72;;;14.08;72.93
43824;BME280;29470;53.550;9.926;2023-04-15T06:26:51;100537.78;;;13.97;73.08
43824;BME280;29470;53.550;9.926;2023-04-15T06:31:55;100535.03;;;13.94;72.96
43824;BME280;29470;53.550;9.926;2023-04-15T06:36:58;100537.47;;;13.58;75.02
43824;BME280;29470;53.550;9.926;2023-04-15T06:42:01;100543.38;;;14.05;71.93
43824;BME280;29470;53.550;9.926;2023-04-15T06:47:06;100551.59;;;14.13;73.10
43824;BME280;29470;53.550;9.926;2023-04-15T06:52:09;100550.09;;;14.18;71.92
43824;BME280;29470;53.550;9.926;2023-04-15T06:57:13;100546.41;;;13.96;74.06
43824;BME280;29470;53.550;9.926;2023-04-15T07:02:17;100546.47;;;14.49;70.98
43824;BME280;29470;53.550;9.926;2023-04-15T07:07:20;100551.78;;;13.83;74.22
43824;BME280;29470;53.550;9.926;2023-04-15T07:12:23;100567.03;;;14.10;72.51
43824;BME280;29470;53.550;9.926;2023-04-15T07:17:27;100575.66;;;13.92;72.96
43824;BME280;29470;53.550;9.926;2023-04-15T07:22:30;100565.91;;;13.88;73.33
43824;BME280;29470;53.550;9.926;2023-04-15T07:27:35;100568.69;;;14.42;72.30
43824;BME280;29470;53.550;9.926;2023-04-15T07:32:40;100574.03;;;14.46;72.04
43824;BME280;29470;53.550;9.926;2023-04-15T07:37:43;100572.38;;;14.64;70.89
43824;BME280;29470;53.550;9.926;2023-04-15T07:42:51;100580.44;;;14.52;72.78
43824;BME280;29470;53.550;9.926;2023-04-15T07:47:58;100587.25;;;13.99;73.72
43824;BME280;29470;53.550;9.926;2023-04-15T07:53:02;100588.88;;;14.13;72.46
43824;BME280;29470;53.550;9.926;2023-04-15T07:58:06;100589.16;;;14.87;70.09
43824;BME280;29470;53.550;9.926;2023-04-15T08:03:10;100605.00;;;14.41;71.55
43824;BME280;29470;53.550;9.926;2023-04-15T08:08:13;100601.38;;;14.37;71.64
43824;BME280;29470;53.550;9.926;2023-04-15T08:13:16;100611.69;;;14.19;72.05
43824;BME280;29470;53.550;9.926;2023-04-15T08:18:20;100609.00;;;14.51;72.41
43824;BME280;29470;53.550;9.926;2023-04-15T08:23:23;100609.31;;;14.73;70.83
43824;BME280;29470;53.550;9.926;2023-04-15T08:28:26;100613.47;;;14.37;72.39
43824;BME280;29470;53.550;9.926;2023-04-15T08:33:30;100609.03;;;14.34;73.39
43824;BME280;29470;53.550;9.926;2023-04-15T08:38:35;100613.91;;;14.63;70.93
43824;BME280;29470;53.550;9.926;2023-04-15T08:43:43;100622.34;;;14.92;70.50
43824;BME280;29470;53.550;9.926;2023-04-15T08:48:49;100628.81;;;15.54;67.83
43824;BME280;29470;53.550;9.926;2023-04-15T08:53:53;100625.03;;;14.93;68.97
43824;BME280;29470;53.550;9.926;2023-04-15T08:58:56;100633.16;;;15.17;68.76
43824;BME280;29470;53.550;9.926;2023-04-15T09:04:02;100640.94;;;15.36;67.76
43824;BME280;29470;53.550;9.926;2023-04-15T09:09:07;100643.78;;;15.22;68.21
43824;BME280;29470;53.550;9.926;2023-04-15T09:14:10;100654.28;;;15.24;67.32
43824;BME280;29470;53.550;9.926;2023-04-15T09:19:21;100650.50;;;15.35;67.34
43824;BME280;29470;53.550;9.926;2023-04-15T09:24:33;100657.53;;;15.74;65.91
43824;BME280;29470;53.550;9.926;2023-04-15T09:29:40;100659.31;;;15.02;68.33
43824;BME280;29470;53.550;9.926;2023-04-15T09:34:44;100659.41;;;16.14;64.68
43824;BME280;29470;53.550;9.926;2023-04-15T09:39:50;100653.22;;;17.35;59.77
43824;BME280;29470;53.550;9.926;2023-04-15T09:44:53;100647.03;;;17.33;59.29
43824;BME280;29470;53.550;9.926;2023-04-15T09:49:58;100647.25;;;17.85;57.08
43824;BME280;29470;53.550;9.926;2023-04-15T09:55:01;100651.13;;;18.42;54.87
43824;BME280;29470;53.550;9.926;2023-04-15T10:00:06;100664.97;;;17.92;55.32
43824;BME280;29470;53.550;9.926;2023-04-15T10:05:13;100662.25;;;18.60;54.74
43824;BME280;29470;53.550;9.926;2023-04-15T10:10:17;100663.50;;;19.51;52.91
43824;BME280;29470;53.550;9.926;2023-04-15T10:15:20;100667.19;;;19.28;51.75
43824;BME280;29470;53.550;9.926;2023-04-15T10:20:25;100676.78;;;19.02;53.16
43824;BME280;29470;53.550;9.926;2023-04-15T10:25:30;100674.97;;;18.75;53.02
43824;BME280;29470;53.550;9.926;2023-04-15T10:30:38;100675.56;;;20.02;50.78
43824;BME280;29470;53.550;9.926;2023-04-15T10:35:43;100676.25;;;20.25;49.80
43824;BME280;29470;53.550;9.926;2023-04-15T10:40:49;100681.88;;;20.71;48.69
43824;BME280;29470;53.550;9.926;2023-04-15T10:45:52;100681.09;;;19.82;50.70
43824;BME280;29470;53.550;9.926;2023-04-15T10:50:59;100677.50;;;19.79;50.82
43824;BME280;29470;53.550;9.926;2023-04-15T10:56:03;100678.56;;;20.14;50.89
43824;BME280;29470;53.550;9.926;2023-04-15T11:01:06;100684.50;;;19.80;50.70
43824;BME280;29470;53.550;9.926;2023-04-15T11:06:11;100687.38;;;20.16;50.44
43824;BME280;29470;53.550;9.926;2023-04-15T11:11:13;100682.81;;;20.73;48.51
43824;BME280;29470;53.550;9.926;2023-04-15T11:16:16;100684.34;;;20.65;47.29
43824;BME280;29470;53.550;9.926;2023-04-15T11:21:23;100701.78;;;20.31;47.42
43824;BME280;29470;53.550;9.926;2023-04-15T11:26:26;100690.63;;;19.80;48.20
43824;BME280;29470;53.550;9.926;2023-04-15T11:31:30;100689.91;;;18.52;51.35
43824;BME280;29470;53.550;9.926;2023-04-15T11:36:34;100705.16;;;18.39;50.42
43824;BME280;29470;53.550;9.926;2023-04-15T11:41:37;100721.72;;;18.89;48.79
43824;BME280;29470;53.550;9.926;2023-04-15T11:46:40;100716.22;;;19.31;48.05
43824;BME280;29470;53.550;9.926;2023-04-15T11:51:46;100722.06;;;20.06;46.21
43824;BME280;29470;53.550;9.926;2023-04-15T11:56:50;100736.72;;;19.17;47.64
43824;BME280;29470;53.550;9.926;2023-04-15T12:01:53;100743.78;;;19.46;46.54
43824;BME280;29470;53.550;9.926;2023-04-15T12:07:03;100741.19;;;18.95;47.33
43824;BME280;29470;53.550;9.926;2023-04-15T12:12:06;100742.00;;;19.72;45.54
43824;BME280;29470;53.550;9.926;2023-04-15T12:17:11;100741.03;;;19.15;46.18
43824;BME280;29470;53.550;9.926;2023-04-15T12:22:16;100749.34;;;19.03;47.34
43824;BME280;29470;53.550;9.926;2023-04-15T12:27:20;100754.59;;;17.86;50.41
43824;BME280;29470;53.550;9.926;2023-04-15T12:32:23;100770.97;;;18.73;48.44
43824;BME280;29470;53.550;9.926;2023-04-15T12:37:27;100776.28;;;18.75;48.06
43824;BME280;29470;53.550;9.926;2023-04-15T12:42:30;100779.41;;;19.13;47.37
43824;BME280;29470;53.550;9.926;2023-04-15T12:47:32;100782.28;;;19.21;46.38
43824;BME280;29470;53.550;9.926;2023-04-15T12:52:37;100791.59;;;18.88;47.45
43824;BME280;29470;53.550;9.926;2023-04-15T12:57:40;100793.94;;;18.56;47.81
43824;BME280;29470;53.550;9.926;2023-04-15T13:02:43;100801.19;;;18.88;46.71
43824;BME280;29470;53.550;9.926;2023-04-15T13:07:47;100802.50;;;18.52;47.56
43824;BME280;29470;53.550;9.926;2023-04-15T13:12:50;100811.25;;;18.07;48.27
43824;BME280;29470;53.550;9.926;2023-04-15T13:17:54;100813.63;;;18.01;48.27
43824;BME280;29470;53.550;9.926;2023-04-15T13:22:58;100803.66;;;18.36;47.15
43824;BME280;29470;53.550;9.926;2023-04-15T13:28:01;100814.53;;;19.44;45.31
43824;BME280;29470;53.550;9.926;2023-04-15T13:33:06;100816.56;;;19.27;45.45
43824;BME280;29470;53.550;9.926;2023-04-15T13:38:10;100815.00;;;19.32;44.35
43824;BME280;29470;53.550;9.926;2023-04-15T13:43:13;100826.66;;;18.67;45.04
43824;BME280;29470;53.550;9.926;2023-04-15T13:48:16;100817.22;;;19.46;43.98
43824;BME280;29470;53.550;9.926;2023-04-15T13:53:21;100827.75;;;18.97;44.91
43824;BME280;29470;53.550;9.926;2023-04-15T13:58:39;100832.72;;;19.38;45.13
43824;BME280;29470;53.550;9.926;2023-04-15T14:03:42;100832.28;;;19.01;45.34
43824;BME280;29470;53.550;9.926;2023-04-15T14:08:47;100826.03;;;19.73;43.78
43824;BME280;29470;53.550;9.926;2023-04-15T14:13:50;100831.25;;;19.99;42.73
43824;BME280;29470;53.550;9.926;2023-04-15T14:18:53;100839.28;;;20.04;42.34
43824;BME280;29470;53.550;9.926;2023-04-15T14:23:57;100849.25;;;19.11;43.46
43824;BME280;29470;53.550;9.926;2023-04-15T14:29:00;100861.75;;;18.95;44.31
43824;BME280;29470;53.550;9.926;2023-04-15T14:34:03;100862.38;;;18.88;44.87
43824;BME280;29470;53.550;9.926;2023-04-15T14:39:08;100876.28;;;18.87;44.73
43824;BME280;29470;53.550;9.926;2023-04-15T14:44:11;100881.19;;;19.01;43.84
43824;BME280;29470;53.550;9.926;2023-04-15T14:49:14;100894.88;;;18.93;44.01
43824;BME280;29470;53.550;9.926;2023-04-15T14:54:18;100903.03;;;18.33;45.44
43824;BME280;29470;53.550;9.926;2023-04-15T14:59:23;100898.31;;;19.15;44.26
43824;BME280;29470;53.550;9.926;2023-04-15T15:04:25;100907.63;;;18.84;44.81
43824;BME280;29470;53.550;9.926;2023-04-15T15:09:30;100903.22;;;19.06;44.35
43824;BME280;29470;53.550;9.926;2023-04-15T15:14:35;100918.09;;;18.38;44.87
43824;BME280;29470;53.550;9.926;2023-04-15T15:19:38;100925.84;;;17.73;46.67
43824;BME280;29470;53.550;9.926;2023-04-15T15:24:42;100932.50;;;17.86;47.02
43824;BME280;29470;53.550;9.926;2023-04-15T15:29:45;100928.38;;;18.34;45.84
43824;BME280;29470;53.550;9.926;2023-04-15T15:34:48;100922.56;;;18.41;45.58
43824;BME280;29470;53.550;9.926;2023-04-15T15:39:52;100933.28;;;18.26;46.74
43824;BME280;29470;53.550;9.926;2023-04-15T15:44:55;100935.81;;;18.46;46.80
43824;BME280;29470;53.550;9.926;2023-04-15T15:49:59;100945.84;;;18.56;46.51
43824;BME280;29470;53.550;9.926;2023-04-15T15:55:06;100954.75;;;18.38;46.56
43824;BME280;29470;53.550;9.926;2023-04-15T16:00:10;100957.16;;;18.55;46.56
43824;BME280;29470;53.550;9.926;2023-04-15T16:05:18;100965.59;;;18.05;48.06
43824;BME280;29470;53.550;9.926;2023-04-15T16:10:25;100988.66;;;17.94;48.53
43824;BME280;29470;53.550;9.926;2023-04-15T16:15:28;100990.91;;;17.65;48.83
43824;BME280;29470;53.550;9.926;2023-04-15T16:20:31;100993.06;;;18.36;47.20
43824;BME280;29470;53.550;9.926;2023-04-15T16:25:35;101008.34;;;17.45;49.04
43824;BME280;29470;53.550;9.926;2023-04-15T16:30:38;101010.41;;;17.15;49.72
43824;BME280;29470;53.550;9.926;2023-04-15T16:35:41;101015.44;;;17.10;50.35
43824;BME280;29470;53.550;9.926;2023-04-15T16:40:46;101015.34;;;17.66;49.54
43824;BME280;29470;53.550;9.926;2023-04-15T16:45:49;101020.81;;;17.13;51.03
43824;BME280;29470;53.550;9.926;2023-04-15T16:50:52;101023.03;;;17.23;51.37
43824;BME280;29470;53.550;9.926;2023-04-15T16:55:56;101042.78;;;16.99;51.63
43824;BME280;29470;53.550;9.926;2023-04-15T17:01:00;101049.16;;;16.87;52.44
43824;BME280;29470;53.550;9.926;2023-04-15T17:06:03;101047.19;;;17.00;52.19
43824;BME280;29470;53.550;9.926;2023-04-15T17:11:07;101048.63;;;16.94;52.36
43824;BME280;29470;53.550;9.926;2023-04-15T17:16:10;101072.28;;;16.61;53.40
43824;BME280;29470;53.550;9.926;2023-04-15T17:21:14;101065.78;;;16.53;54.13
43824;BME280;29470;53.550;9.926;2023-04-15T17:26:18;101073.44;;;17.03;52.72
43824;BME280;29470;53.550;9.926;2023-04-15T17:31:22;101070.47;;;16.78;53.96
43824;BME280;29470;53.550;9.926;2023-04-15T17:36:25;101081.91;;;16.62;54.38
43824;BME280;29470;53.550;9.926;2023-04-15T17:41:29;101094.53;;;16.89;53.71
43824;BME280;29470;53.550;9.926;2023-04-15T17:46:32;101097.38;;;16.76;53.95
43824;BME280;29470;53.550;9.926;2023-04-15T17:51:35;101096.84;;;16.83;54.35
43824;BME280;29470;53.550;9.926;2023-04-15T17:56:42;101108.84;;;16.10;56.19
43824;BME280;29470;53.550;9.926;2023-04-15T18:01:45;101108.50;;;16.37;55.45
43824;BME280;29470;53.550;9.926;2023-04-15T18:06:48;101112.16;;;15.91;56.52
43824;BME280;29470;53.550;9.926;2023-04-15T18:11:52;101113.47;;;15.99;56.97
43824;BME280;29470;53.550;9.926;2023-04-15T18:16:55;101129.28;;;16.19;56.13
43824;BME280;29470;53.550;9.926;2023-04-15T18:21:58;101138.31;;;15.76;57.34
43824;BME280;29470;53.550;9.926;2023-04-15T18:27:02;101139.22;;;15.93;57.43
43824;BME280;29470;53.550;9.926;2023-04-15T18:32:05;101160.03;;;15.60;58.47
43824;BME280;29470;53.550;9.926;2023-04-15T18:37:08;101175.84;;;15.63;58.21
43824;BME280;29470;53.550;9.926;2023-04-15T18:42:12;101173.97;;;15.60;58.30
43824;BME280;29470;53.550;9.926;2023-04-15T18:47:15;101195.16;;;15.67;58.09
43824;BME280;29470;53.550;9.926;2023-04-15T18:52:18;101190.97;;;15.54;58.71
43824;BME280;29470;53.550;9.926;2023-04-15T18:57:23;101201.00;;;15.01;60.45
43824;BME280;29470;53.550;9.926;2023-04-15T19:02:35;101197.88;;;16.00;57.63
43824;BME280;29470;53.550;9.926;2023-04-15T19:07:38;101202.00;;;15.65;58.21
43824;BME280;29470;53.550;9.926;2023-04-15T19:12:43;101207.25;;;15.81;57.70
43824;BME280;29470;53.550;9.926;2023-04-15T19:17:45;101219.44;;;15.04;60.68
43824;BME280;29470;53.550;9.926;2023-04-15T19:22:48;101226.16;;;14.85;61.25
43824;BME280;29470;53.550;9.926;2023-04-15T19:27:53;101235.34;;;14.65;61.21
43824;BME280;29470;53.550;9.926;2023-04-15T19:32:56;101248.00;;;14.59;61.90
43824;BME280;29470;53.550;9.926;2023-04-15T19:37:59;101261.09;;;15.04;59.92
43824;BME280;29470;53.550;9.926;2023-04-15T19:43:03;101258.09;;;14.54;61.11
43824;BME280;29470;53.550;9.926;2023-04-15T19:48:06;101274.91;;;14.59;60.58
43824;BME280;29470;53.550;9.926;2023-04-15T19:53:09;101272.09;;;14.70;59.91
43824;BME280;29470;53.550;9.926;2023-04-15T19:58:13;101282.75;;;14.46;60.46
43824;BME280;29470;53.550;9.926;2023-04-15T20:03:16;101277.09;;;14.38;60.77
43824;BME280;29470;53.550;9.926;2023-04-15T20:08:19;101270.91;;;15.08;59.00
43824;BME280;29470;53.550;9.926;2023-04-15T20:13:24;101279.69;;;14.67;59.33
43824;BME280;29470;53.550;9.926;2023-04-15T20:18:27;101292.03;;;14.69;59.35
43824;BME280;29470;53.550;9.926;2023-04-15T20:23:30;101299.00;;;14.28;61.20
43824;BME280;29470;53.550;9.926;2023-04-15T20:28:34;101307.75;;;14.16;62.03
43824;BME280;29470;53.550;9.926;2023-04-15T20:33:37;101309.56;;;13.63;63.41
43824;BME280;29470;53.550;9.926;2023-04-15T20:38:40;101313.75;;;14.14;62.13
43824;BME280;29470;53.550;9.926;2023-04-15T20:43:44;101322.66;;;13.51;63.78
43824;BME280;29470;53.550;9.926;2023-04-15T20:48:46;101320.75;;;13.48;64.73
43824;BME280;29470;53.550;9.926;2023-04-15T20:53:49;101324.56;;;14.07;62.23
43824;BME280;29470;53.550;9.926;2023-04-15T20:58:54;101316.34;;;14.70;59.08
43824;BME280;29470;53.550;9.926;2023-04-15T21:03:57;101329.56;;;14.18;61.63
43824;BME280;29470;53.550;9.926;2023-04-15T21:09:00;101334.09;;;13.41;64.13
43824;BME280;29470;53.550;9.926;2023-04-15T21:14:06;101341.19;;;13.82;62.41
43824;BME280;29470;53.550;9.926;2023-04-15T21:19:09;101338.28;;;13.78;63.25
43824;BME280;29470;53.550;9.926;2023-04-15T21:24:12;101347.84;;;13.52;63.70
43824;BME280;29470;53.550;9.926;2023-04-15T21:29:16;101349.53;;;13.51;63.19
43824;BME280;29470;53.550;9.926;2023-04-15T21:34:19;101355.91;;;13.82;63.21
43824;BME280;29470;53.550;9.926;2023-04-15T21:39:22;101358.97;;;13.63;63.18
43824;BME280;29470;53.550;9.926;2023-04-15T21:44:26;101361.84;;;13.54;63.84
43824;BME280;29470;53.550;9.926;2023-04-15T21:49:29;101367.16;;;13.30;64.56
43824;BME280;29470;53.550;9.926;2023-04-15T21:54:32;101365.19;;;13.78;62.58
43824;BME280;29470;53.550;9.926;2023-04-15T21:59:38;101376.56;;;13.67;63.46
43824;BME280;29470;53.550;9.926;2023-04-15T22:04:42;101375.16;;;13.33;64.41
43824;BME280;29470;53.550;9.926;2023-04-15T22:09:44;101378.69;;;13.86;62.57
43824;BME280;29470;53.550;9.926;2023-04-15T22:14:49;101388.59;;;13.14;64.92
43824;BME280;29470;53.550;9.926;2023-04-15T22:19:52;101385.88;;;13.77;63.64
43824;BME280;29470;53.550;9.926;2023-04-15T22:24:54;101383.88;;;13.73;62.06
43824;BME280;29470;53.550;9.926;2023-04-15T22:29:58;101392.94;;;13.66;63.47
43824;BME280;29470;53.550;9.926;2023-04-15T22:35:01;101384.31;;;13.92;61.94
43824;BME280;29470;53.550;9.926;2023-04-15T22:40:07;101390.19;;;14.03;61.88
43824;BME280;29470;53.550;9.926;2023-04-15T22:45:12;101394.09;;;13.19;64.60
43824;BME280;29470;53.550;9.926;2023-04-15T22:50:14;101411.25;;;13.17;65.39
43824;BME280;29470;53.550;9.926;2023-04-15T22:55:17;101404.00;;;12.99;65.97
43824;BME280;29470;53.550;9.926;2023-04-15T23:00:21;101406.72;;;13.26;65.39
43824;BME280;29470;53.550;9.926;2023-04-15T23:05:24;101407.28;;;12.96;65.99
43824;BME280;29470;53.550;9.926;2023-04-15T23:10:27;101427.19;;;12.84;66.21
43824;BME280;29470;53.550;9.926;2023-04-15T23:15:32;101431.97;;;13.03;65.89
43824;BME280;29470;53.550;9.926;2023-04-15T23:20:34;101439.47;;;12.87;66.27
43824;BME280;29470;53.550;9.926;2023-04-15T23:25:37;101449.09;;;12.64;67.16
43824;BME280;29470;53.550;9.926;2023-04-15T23:30:41;101450.00;;;12.76;67.23
43824;BME280;29470;53.550;9.926;2023-04-15T23:35:44;101456.22;;;12.55;67.96
43824;BME280;29470;53.550;9.926;2023-04-15T23:40:47;101454.09;;;13.35;64.43
43824;BME280;29470;53.550;9.926;2023-04-15T23:45:51;101461.69;;;12.95;66.63
43824;BME280;29470;53.550;9.926;2023-04-15T23:50:54;101454.50;;;12.67;66.97
43824;BME280;29470;53.550;9.926;2023-04-15T23:55:57;101451.22;;;13.19;64.05
